Time;durP1;ratioP1;P1;durP2;ratioP2;P2;SDS_P1;SDS_P2;PMS_P1;PMS_P2;Temp;Humidity;BMP_temperature;BMP_pressure;BME280_temperature;BME280_humidity;BME280_pressure;Samples;Min_cycle;Max_cycle;Signal;HPM_P1;HPM_P2
2024/04/13 00:02:16;;;;;;;3.40;3.10;;;16.10;99.90;;;;;;5433389;26;20798;-72
2024/04/13 00:04:42;;;;;;;3.47;2.95;;;16.00;99.90;;;;;;5465186;26;20292;-72
2024/04/13 00:07:11;;;;;;;3.40;3.10;;;16.00;99.90;;;;;;5460552;26;20250;-72
2024/04/13 00:09:37;;;;;;;3.03;2.75;;;16.00;99.90;;;;;;5461535;26;20790;-73
2024/04/13 00:12:06;;;;;;;3.38;3.08;;;16.00;99.90;;;;;;5462872;26;20245;-72
2024/04/13 00:14:33;;;;;;;3.55;2.80;;;16.00;99.90;;;;;;5460468;26;20285;-73
2024/04/13 00:17:02;;;;;;;3.85;2.90;;;16.00;99.90;;;;;;5460257;26;20251;-72
2024/04/13 00:19:33;;;;;;;2.65;2.45;;;16.00;99.90;;;;;;5469171;26;20254;-73
2024/04/13 00:22:02;;;;;;;3.70;2.83;;;15.90;99.90;;;;;;5457794;26;20259;-73
2024/04/13 00:24:28;;;;;;;2.90;2.70;;;16.00;99.90;;;;;;5463889;26;20300;-73
2024/04/13 00:26:56;;;;;;;2.75;2.55;;;15.90;99.90;;;;;;5459389;26;21081;-72
2024/04/13 00:29:22;;;;;;;3.08;2.78;;;15.90;99.90;;;;;;5465042;26;20235;-73
2024/04/13 00:31:51;;;;;;;3.53;2.97;;;15.80;99.90;;;;;;5459280;26;20785;-72
2024/04/13 00:34:17;;;;;;;3.22;3.00;;;15.80;99.90;;;;;;5437367;26;20263;-72
2024/04/13 00:36:48;;;;;;;2.70;2.50;;;15.80;99.90;;;;;;5432413;26;20246;-72
2024/04/13 00:39:14;;;;;;;4.13;2.40;;;15.80;99.90;;;;;;5435934;26;20261;-72
2024/04/13 00:41:43;;;;;;;2.80;2.60;;;15.80;99.90;;;;;;5461734;26;20253;-73
2024/04/13 00:44:09;;;;;;;2.78;2.55;;;15.80;99.90;;;;;;5434473;26;20314;-72
2024/04/13 00:46:42;;;;;;;2.60;2.40;;;15.70;99.90;;;;;;5466187;26;20254;-73
2024/04/13 00:49:13;;;;;;;2.78;2.58;;;15.70;99.90;;;;;;5462962;26;20246;-73
2024/04/13 00:51:44;;;;;;;2.40;2.20;;;15.70;99.90;;;;;;5468344;26;20655;-72
2024/04/13 00:54:15;;;;;;;2.60;2.40;;;15.60;99.90;;;;;;5462600;26;20246;-72
2024/04/13 00:56:44;;;;;;;2.70;2.50;;;15.60;99.90;;;;;;5457780;26;20904;-72
2024/04/13 00:59:11;;;;;;;2.70;2.47;;;15.60;99.90;;;;;;5463325;26;20242;-72
2024/04/13 01:01:40;;;;;;;2.63;2.42;;;15.50;99.90;;;;;;5434573;26;20933;-72
2024/04/13 01:04:08;;;;;;;5.18;2.10;;;15.50;99.90;;;;;;5461434;26;20250;-74
2024/04/13 01:06:38;;;;;;;3.63;2.50;;;15.50;99.90;;;;;;5458021;26;20280;-71
2024/04/13 01:09:04;;;;;;;2.78;2.53;;;15.40;99.90;;;;;;5433623;26;20298;-71
2024/04/13 01:11:38;;;;;;;3.08;2.33;;;15.40;99.90;;;;;;5458124;26;20259;-72
2024/04/13 01:14:04;;;;;;;2.97;2.75;;;15.30;99.90;;;;;;5463408;26;21005;-73
2024/04/13 01:16:35;;;;;;;3.03;2.83;;;15.20;99.90;;;;;;5459145;26;20246;-72
2024/04/13 01:19:01;;;;;;;3.80;2.58;;;15.20;99.90;;;;;;5466266;26;20380;-70
2024/04/13 01:21:30;;;;;;;2.53;2.33;;;15.20;99.90;;;;;;5455737;26;20258;-72
2024/04/13 01:24:01;;;;;;;3.10;2.60;;;15.20;99.90;;;;;;5438275;26;20910;-71
2024/04/13 01:26:30;;;;;;;2.92;2.63;;;15.20;99.90;;;;;;5454819;26;20301;-72
2024/04/13 01:28:56;;;;;;;2.83;2.55;;;15.20;99.90;;;;;;5457067;26;20243;-72
2024/04/13 01:31:26;;;;;;;3.15;2.85;;;15.10;99.90;;;;;;5463499;26;20280;-72
2024/04/13 03:07:17;;;;;;;3.78;3.08;;;14.10;99.90;;;;;;5436420;26;20257;-72
2024/04/13 03:09:43;;;;;;;2.70;2.50;;;14.00;99.90;;;;;;5463090;26;20285;-73
2024/04/13 03:12:11;;;;;;;2.83;2.63;;;14.00;99.90;;;;;;5460601;26;20246;-71
2024/04/13 03:14:37;;;;;;;3.00;2.60;;;14.00;99.90;;;;;;5471634;26;20589;-72
2024/04/13 03:20:30;;;;;;;2.90;2.42;;;14.00;99.90;;;;;;5463407;26;20282;-71
2024/04/13 03:22:58;;;;;;;2.75;2.45;;;14.00;99.90;;;;;;5472543;26;20242;-70
2024/04/13 03:25:27;;;;;;;2.83;2.50;;;14.00;99.90;;;;;;5471541;26;21106;-70
2024/04/13 03:27:53;;;;;;;2.70;2.50;;;13.90;99.90;;;;;;5460874;26;20325;-70
2024/04/13 03:30:21;;;;;;;2.60;2.40;;;13.90;99.90;;;;;;5471509;26;20278;-70
2024/04/13 03:32:47;;;;;;;3.03;2.30;;;13.90;99.90;;;;;;5461840;26;20312;-71
2024/04/13 03:35:16;;;;;;;2.80;2.00;;;13.90;99.90;;;;;;5466860;26;20235;-70
2024/04/13 03:37:42;;;;;;;4.28;2.53;;;13.90;99.90;;;;;;5465194;26;20258;-71
2024/04/13 03:40:15;;;;;;;4.05;2.08;;;13.90;99.90;;;;;;5466866;26;20801;-71
2024/04/13 03:42:47;;;;;;;2.50;2.30;;;13.80;99.90;;;;;;5468229;26;20952;-73
2024/04/13 03:45:16;;;;;;;2.55;2.10;;;13.80;99.90;;;;;;5463447;26;20317;-73
2024/04/13 03:47:46;;;;;;;2.13;2.00;;;13.80;99.90;;;;;;5434093;26;20367;-74
2024/04/13 03:50:11;;;;;;;2.30;2.10;;;13.80;99.90;;;;;;5463978;26;20246;-73
2024/04/13 03:52:41;;;;;;;3.30;2.45;;;13.70;99.90;;;;;;5464416;26;20292;-71
2024/04/13 03:55:07;;;;;;;2.45;2.25;;;13.70;99.90;;;;;;5440924;26;20748;-70
2024/04/13 03:57:38;;;;;;;2.35;2.25;;;13.60;99.90;;;;;;5434510;26;20299;-71
2024/04/13 04:00:06;;;;;;;2.65;2.10;;;13.70;99.90;;;;;;5467683;26;20296;-71
2024/04/13 04:02:35;;;;;;;2.03;1.77;;;13.80;99.90;;;;;;5433320;26;20343;-71
2024/04/13 04:05:01;;;;;;;2.40;2.20;;;13.80;99.90;;;;;;5463820;26;20243;-73
2024/04/13 04:07:30;;;;;;;2.45;2.20;;;13.80;99.90;;;;;;5434360;26;20250;-71
2024/04/13 04:09:56;;;;;;;2.42;2.13;;;13.70;99.90;;;;;;5462176;26;20332;-71
2024/04/13 04:12:25;;;;;;;2.30;2.13;;;13.60;99.90;;;;;;5466466;26;21072;-71
2024/04/13 04:14:54;;;;;;;2.65;2.45;;;13.50;99.90;;;;;;5467047;26;20305;-71
2024/04/13 04:17:23;;;;;;;2.53;2.10;;;13.40;99.90;;;;;;5463951;26;21108;-71
2024/04/13 04:19:49;;;;;;;2.40;2.17;;;13.40;99.90;;;;;;5457152;26;20292;-70
2024/04/13 04:22:18;;;;;;;2.97;1.90;;;13.40;99.90;;;;;;5465109;25;20318;-71
2024/04/13 04:24:44;;;;;;;1.83;1.73;;;13.40;99.90;;;;;;5475364;25;20301;-73
2024/04/13 04:27:12;;;;;;;4.35;2.08;;;13.40;99.90;;;;;;5439332;26;20253;-73
2024/04/13 04:29:40;;;;;;;2.10;1.98;;;13.40;99.90;;;;;;5462496;26;23019;-73
2024/04/13 04:32:12;;;;;;;2.10;2.00;;;13.40;99.90;;;;;;5473950;26;20289;-73
2024/04/13 04:34:38;;;;;;;2.38;2.17;;;13.40;99.90;;;;;;5466062;26;20327;-73
2024/04/13 04:37:07;;;;;;;1.90;1.80;;;13.40;99.90;;;;;;5456134;26;20258;-73
2024/04/13 04:39:33;;;;;;;2.20;2.03;;;13.50;99.90;;;;;;5460979;26;20250;-70
2024/04/13 04:42:02;;;;;;;2.42;2.10;;;13.50;99.90;;;;;;5409717;26;20289;-70
2024/04/13 04:44:29;;;;;;;2.38;2.17;;;13.40;99.90;;;;;;5472951;26;20281;-71
2024/04/13 04:46:58;;;;;;;2.63;2.17;;;13.40;99.90;;;;;;5429516;26;20259;-71
2024/04/13 04:49:27;;;;;;;2.25;2.05;;;13.40;99.90;;;;;;5440053;26;20250;-73
2024/04/13 04:51:56;;;;;;;2.25;2.05;;;13.40;99.90;;;;;;5460393;26;20944;-71
2024/04/13 04:54:22;;;;;;;2.83;2.40;;;13.40;99.90;;;;;;5459230;26;20258;-71
2024/04/13 04:56:50;;;;;;;2.75;2.42;;;13.40;99.90;;;;;;5433759;26;20307;-71
2024/04/13 04:59:16;;;;;;;2.00;1.90;;;13.30;99.90;;;;;;5437900;26;21125;-71
2024/04/13 05:01:45;;;;;;;2.30;2.15;;;13.40;99.90;;;;;;5461428;26;20250;-71
2024/04/13 05:04:14;;;;;;;2.58;1.95;;;13.40;99.90;;;;;;5465842;26;20259;-71
2024/04/13 05:06:43;;;;;;;2.00;1.90;;;13.40;99.90;;;;;;5465884;26;21132;-71
2024/04/13 05:09:12;;;;;;;2.33;2.08;;;13.40;99.90;;;;;;5464480;26;20279;-73
2024/04/13 05:11:38;;;;;;;2.25;1.92;;;13.40;99.90;;;;;;5474599;26;20242;-73
2024/04/13 05:14:07;;;;;;;1.70;1.60;;;13.50;99.90;;;;;;5444359;26;20363;-73
2024/04/13 05:16:34;;;;;;;2.15;1.90;;;13.50;99.90;;;;;;5475997;26;20250;-72
2024/04/13 05:19:03;;;;;;;3.67;2.05;;;13.60;99.90;;;;;;5475669;26;20750;-73
2024/04/13 05:31:53;;;;;;;3.45;2.00;;;13.80;99.90;;;;;;5433152;21;20316;-75
2024/04/13 05:34:19;;;;;;;3.30;2.28;;;13.90;99.90;;;;;;5374706;26;20877;-75
2024/04/13 05:36:48;;;;;;;1.77;1.67;;;14.00;99.90;;;;;;5419632;26;20290;-76
2024/04/13 05:39:14;;;;;;;2.00;1.90;;;14.10;99.90;;;;;;5433896;26;20251;-76
2024/04/13 05:41:43;;;;;;;1.95;1.85;;;14.20;99.90;;;;;;5431615;26;20289;-75
2024/04/13 05:44:11;;;;;;;2.75;1.70;;;14.40;99.90;;;;;;5429477;26;20232;-77
2024/04/13 05:46:37;;;;;;;2.88;2.53;;;14.60;99.90;;;;;;5431353;26;20705;-75
2024/04/13 05:49:09;;;;;;;4.07;2.40;;;15.00;99.90;;;;;;5439914;26;20606;-75
2024/04/13 05:51:34;;;;;;;2.22;2.03;;;15.20;99.90;;;;;;5434258;26;20243;-76
2024/04/13 05:54:03;;;;;;;4.22;2.20;;;15.50;99.90;;;;;;5436739;26;20247;-76
2024/04/13 05:56:29;;;;;;;2.30;2.10;;;15.70;99.90;;;;;;5432162;26;20784;-78
2024/04/13 05:58:58;;;;;;;4.28;2.13;;;15.90;99.90;;;;;;5432874;26;20243;-76
2024/04/13 06:01:25;;;;;;;3.50;2.22;;;16.00;99.90;;;;;;5430150;26;20298;-74
2024/04/13 06:03:54;;;;;;;2.72;2.35;;;16.20;99.90;;;;;;5435478;26;20251;-80
2024/04/13 06:06:22;;;;;;;2.50;2.30;;;16.40;99.90;;;;;;5433989;26;20309;-76
2024/04/13 06:08:51;;;;;;;2.80;2.35;;;16.60;99.90;;;;;;5434840;26;20289;-76
2024/04/13 06:11:17;;;;;;;2.22;2.03;;;17.00;99.90;;;;;;5429629;26;24100;-76
2024/04/13 06:13:45;;;;;;;2.75;2.20;;;17.40;99.90;;;;;;5436092;26;20255;-75
2024/04/13 06:16:11;;;;;;;2.75;2.20;;;17.80;99.90;;;;;;5434476;26;20309;-76
2024/04/13 06:18:40;;;;;;;5.85;2.10;;;18.00;99.90;;;;;;5435113;26;21021;-75
2024/04/13 06:21:06;;;;;;;6.18;2.63;;;18.10;99.90;;;;;;5429937;26;20298;-84
2024/04/13 06:23:38;;;;;;;3.42;2.35;;;18.40;99.90;;;;;;5436718;26;20801;-78
2024/04/13 06:26:05;;;;;;;5.53;2.42;;;18.60;99.90;;;;;;5437826;26;20247;-75
2024/04/13 06:28:33;;;;;;;2.95;2.17;;;18.60;99.90;;;;;;5439808;26;20255;-78
2024/04/13 06:30:59;;;;;;;5.25;2.50;;;18.80;99.90;;;;;;5429358;26;20255;-78
2024/04/13 06:33:28;;;;;;;4.68;2.70;;;18.90;99.90;;;;;;5431217;26;20263;-76
2024/04/13 06:35:54;;;;;;;5.18;2.65;;;18.90;99.90;;;;;;5439904;26;20784;-76
2024/04/13 06:38:26;;;;;;;3.10;2.60;;;18.90;99.90;;;;;;5433280;26;20271;-76
2024/04/13 06:40:55;;;;;;;2.70;2.50;;;18.90;99.90;;;;;;5438985;26;20286;-77
2024/04/13 06:43:23;;;;;;;3.05;2.75;;;18.90;99.90;;;;;;5436517;26;20310;-78
2024/04/13 06:45:50;;;;;;;4.57;2.63;;;18.90;99.90;;;;;;5431852;26;20252;-77
2024/04/13 06:48:19;;;;;;;4.90;2.72;;;19.10;99.90;;;;;;5434896;26;20259;-76
2024/04/13 06:50:45;;;;;;;3.45;2.33;;;19.30;99.90;;;;;;5439064;26;20321;-77
2024/04/13 06:53:13;;;;;;;3.65;2.80;;;19.40;99.90;;;;;;5436808;26;20648;-78
2024/04/13 06:55:39;;;;;;;3.70;2.28;;;19.40;99.90;;;;;;5435183;26;20260;-77
2024/04/13 06:58:12;;;;;;;3.45;2.38;;;19.40;99.90;;;;;;5433625;26;20309;-76
2024/04/13 07:00:38;;;;;;;3.13;2.50;;;19.50;99.90;;;;;;5436380;26;20285;-81
2024/04/13 07:03:07;;;;;;;5.57;2.50;;;19.50;99.90;;;;;;5439903;26;20251;-77
2024/04/13 07:05:33;;;;;;;3.05;2.33;;;19.60;99.90;;;;;;5432208;26;20239;-78
2024/04/13 07:08:01;;;;;;;3.83;2.67;;;19.80;99.90;;;;;;5433071;26;21108;-77
2024/04/13 07:10:27;;;;;;;3.05;2.38;;;19.90;99.90;;;;;;5435321;26;20300;-78
2024/04/13 07:12:56;;;;;;;4.88;2.70;;;20.00;99.90;;;;;;5431883;26;20251;-76
2024/04/13 07:15:24;;;;;;;3.95;2.35;;;19.90;99.90;;;;;;5433585;26;20251;-79
2024/04/13 07:17:53;;;;;;;4.28;2.33;;;20.00;99.90;;;;;;5421757;26;20338;-77
2024/04/13 07:20:19;;;;;;;3.58;2.05;;;20.20;99.90;;;;;;5427477;26;20301;-78
2024/04/13 07:22:47;;;;;;;4.03;2.00;;;20.30;99.90;;;;;;5425982;26;20301;-78
2024/04/13 07:25:13;;;;;;;5.60;2.03;;;20.40;99.90;;;;;;5423194;26;20294;-77
2024/04/13 07:27:42;;;;;;;5.68;2.58;;;20.60;99.90;;;;;;5428513;26;20247;-77
2024/04/13 07:30:09;;;;;;;4.43;2.13;;;20.50;99.90;;;;;;5422540;26;20328;-77
2024/04/13 07:32:40;;;;;;;5.35;2.45;;;20.50;99.90;;;;;;5425049;26;20289;-77
2024/04/13 07:35:06;;;;;;;4.75;2.10;;;20.50;99.90;;;;;;5428605;26;20235;-78
2024/04/13 07:37:35;;;;;;;4.13;2.35;;;20.60;99.90;;;;;;5421166;26;20697;-78
2024/04/13 07:40:01;;;;;;;4.97;2.28;;;20.90;99.90;;;;;;5426903;26;20251;-77
2024/04/13 07:42:29;;;;;;;5.55;2.63;;;20.70;99.90;;;;;;5425387;26;20863;-78
2024/04/13 07:44:55;;;;;;;2.75;2.22;;;20.60;99.90;;;;;;5420448;26;20295;-76
2024/04/13 07:47:24;;;;;;;4.25;2.25;;;20.50;99.90;;;;;;5422531;26;20713;-77
2024/04/13 07:49:53;;;;;;;4.22;1.98;;;20.50;99.90;;;;;;5429857;26;20266;-78
2024/04/13 07:52:21;;;;;;;2.75;2.10;;;20.60;99.90;;;;;;5424656;26;20364;-79
2024/04/13 07:54:49;;;;;;;3.40;2.10;;;20.50;99.90;;;;;;5431882;26;20251;-78
2024/04/13 07:57:18;;;;;;;4.88;2.20;;;20.60;99.90;;;;;;5431217;26;20278;-77
2024/04/13 07:59:44;;;;;;;3.72;2.15;;;20.80;99.90;;;;;;5431817;26;20251;-77
2024/04/13 08:02:13;;;;;;;6.20;2.50;;;20.90;99.90;;;;;;5432000;26;21017;-77
2024/04/13 08:04:38;;;;;;;4.50;2.40;;;21.10;99.90;;;;;;5430013;26;20256;-76
2024/04/13 08:07:10;;;;;;;5.32;2.20;;;21.20;99.90;;;;;;5432358;26;20282;-79
2024/04/13 08:09:39;;;;;;;5.85;2.15;;;21.00;99.90;;;;;;5426779;26;20251;-78
2024/04/13 08:12:09;;;;;;;3.20;2.10;;;21.00;99.90;;;;;;5426620;26;20317;-76
2024/04/13 08:14:35;;;;;;;7.30;1.90;;;21.10;99.90;;;;;;5434695;26;20231;-77
2024/04/13 08:17:03;;;;;;;3.80;2.40;;;21.40;99.90;;;;;;5431184;26;20301;-79
2024/04/13 08:19:29;;;;;;;3.95;2.20;;;21.80;99.90;;;;;;5439703;26;20334;-76
2024/04/13 08:21:58;;;;;;;3.15;2.35;;;21.80;99.90;;;;;;5433857;26;20267;-76
2024/04/13 08:24:26;;;;;;;4.22;2.25;;;21.80;99.90;;;;;;5432698;26;20597;-77
2024/04/13 08:26:55;;;;;;;5.03;2.30;;;21.80;99.90;;;;;;5434450;26;20859;-76
2024/04/13 08:29:21;;;;;;;3.80;2.08;;;21.90;99.90;;;;;;5431663;26;20480;-76
2024/04/13 08:31:49;;;;;;;4.57;2.03;;;21.90;99.90;;;;;;5433131;26;20747;-76
2024/04/13 08:34:17;;;;;;;4.38;2.47;;;22.00;99.90;;;;;;5437491;26;20255;-77
2024/04/13 08:36:46;;;;;;;5.90;2.50;;;21.90;99.90;;;;;;5439027;26;20266;-77
2024/04/13 08:39:12;;;;;;;3.78;2.40;;;21.80;99.90;;;;;;5436552;26;20254;-76
2024/04/13 08:41:50;;;;;;;4.22;2.15;;;21.90;99.90;;;;;;5433077;26;20314;-78
2024/04/13 08:44:17;;;;;;;2.72;2.25;;;21.90;99.90;;;;;;5439077;26;20235;-77
2024/04/13 08:46:47;;;;;;;4.50;2.15;;;21.80;99.90;;;;;;5434385;26;20812;-77
2024/04/13 08:49:17;;;;;;;2.83;2.15;;;21.70;99.90;;;;;;5432538;26;20255;-77
2024/04/13 08:51:47;;;;;;;4.18;2.38;;;21.70;99.90;;;;;;5431696;26;20255;-78
2024/04/13 08:54:16;;;;;;;3.90;2.10;;;21.80;99.90;;;;;;5436269;26;20316;-77
2024/04/13 08:56:49;;;;;;;3.63;2.30;;;22.10;99.90;;;;;;5433654;26;20787;-77
2024/04/13 08:59:16;;;;;;;2.95;2.03;;;22.20;99.90;;;;;;5434003;26;20247;-77
2024/04/13 09:01:46;;;;;;;3.55;2.22;;;22.30;99.90;;;;;;5437919;26;20255;-76
2024/04/13 09:04:12;;;;;;;4.45;2.50;;;22.30;99.90;;;;;;5427946;26;20255;-77
2024/04/13 09:06:43;;;;;;;3.85;1.92;;;22.60;99.90;;;;;;5424241;26;20259;-79
2024/04/13 09:09:10;;;;;;;4.25;2.45;;;22.90;99.90;;;;;;5437834;26;20298;-79
2024/04/13 09:11:39;;;;;;;3.13;2.28;;;23.10;99.90;;;;;;5435845;26;20305;-77
2024/04/13 09:14:11;;;;;;;4.93;2.40;;;23.10;99.90;;;;;;5432170;26;20278;-79
2024/04/13 09:16:41;;;;;;;3.72;2.22;;;23.20;99.90;;;;;;5431019;26;20289;-78
2024/04/13 09:19:09;;;;;;;4.63;2.60;;;23.30;99.90;;;;;;5433634;26;20251;-76
2024/04/13 09:21:37;;;;;;;3.83;2.35;;;23.30;99.90;;;;;;5429458;26;20289;-76
2024/04/13 09:24:06;;;;;;;6.60;2.50;;;23.20;99.90;;;;;;5430221;26;20260;-77
2024/04/13 09:26:44;;;;;;;3.72;2.22;;;23.20;99.90;;;;;;5430298;26;20263;-77
2024/04/13 09:29:13;;;;;;;2.40;1.95;;;23.10;99.90;;;;;;5437715;26;20306;-76
2024/04/13 09:31:42;;;;;;;3.50;2.00;;;23.30;99.90;;;;;;5439130;26;20259;-76
2024/04/13 09:34:16;;;;;;;4.43;1.95;;;23.30;99.90;;;;;;5440606;26;20723;-77
2024/04/13 09:36:45;;;;;;;2.30;2.03;;;23.40;99.90;;;;;;5434814;26;20270;-79
2024/04/13 09:39:19;;;;;;;11.50;2.58;;;23.50;99.90;;;;;;5432232;26;20302;-77
2024/04/13 09:41:48;;;;;;;9.77;2.50;;;23.50;99.90;;;;;;5439173;26;20307;-79
2024/04/13 09:44:26;;;;;;;4.43;2.38;;;23.50;99.90;;;;;;5445295;26;20224;-78
2024/04/13 09:46:55;;;;;;;4.20;2.03;;;23.40;99.90;;;;;;5438859;26;20255;-78
2024/04/13 09:49:21;;;;;;;4.97;2.17;;;23.30;99.90;;;;;;5443648;26;20282;-76
2024/04/13 09:51:51;;;;;;;3.03;2.00;;;23.50;99.90;;;;;;5437615;26;20251;-77
2024/04/13 09:54:18;;;;;;;3.75;2.17;;;23.50;99.90;;;;;;5435528;26;20281;-75
2024/04/13 09:56:48;;;;;;;6.35;2.03;;;23.80;99.90;;;;;;5448817;26;20254;-76
2024/04/13 09:59:17;;;;;;;3.58;1.70;;;23.90;99.90;;;;;;5452950;26;20274;-75
2024/04/13 10:01:49;;;;;;;3.38;1.95;;;24.10;99.90;;;;;;5448649;26;20259;-74
2024/04/13 10:04:15;;;;;;;2.30;2.00;;;24.20;99.90;;;;;;5444354;26;20263;-77
2024/04/13 10:06:45;;;;;;;3.13;2.00;;;24.30;99.90;;;;;;5439711;26;20248;-75
2024/04/13 10:09:17;;;;;;;8.77;1.83;;;24.40;99.90;;;;;;5452669;26;20374;-75
2024/04/13 10:11:49;;;;;;;3.10;2.00;;;24.50;99.90;;;;;;5446796;26;20251;-74
2024/04/13 10:14:15;;;;;;;5.40;2.20;;;24.70;99.90;;;;;;5452255;26;20240;-74
2024/04/13 10:16:48;;;;;;;3.15;2.00;;;24.70;99.90;;;;;;5444193;26;20267;-76
2024/04/13 10:19:17;;;;;;;3.10;1.95;;;24.80;99.90;;;;;;5451113;26;20302;-76
2024/04/13 10:21:45;;;;;;;3.33;1.80;;;24.90;99.90;;;;;;5445277;26;20314;-76
2024/04/13 10:24:15;;;;;;;2.53;1.80;;;25.00;99.90;;;;;;5444264;26;20294;-75
2024/04/13 10:26:44;;;;;;;4.45;2.25;;;25.00;99.90;;;;;;5446993;26;20343;-76
2024/04/13 10:29:09;;;;;;;7.43;2.00;;;24.90;99.90;;;;;;5441316;26;20282;-76
2024/04/13 10:31:39;;;;;;;3.13;1.70;;;24.80;99.90;;;;;;5450507;26;20327;-75
2024/04/13 10:34:09;;;;;;;3.97;2.10;;;24.90;99.90;;;;;;5451631;26;20271;-76
2024/04/13 10:36:40;;;;;;;4.80;1.70;;;24.90;99.90;;;;;;5450255;26;20313;-76
2024/04/13 10:39:21;;;;;;;1.80;1.70;;;25.00;99.90;;;;;;5450553;26;20254;-76
2024/04/13 10:41:49;;;;;;;2.45;1.48;;;25.00;99.90;;;;;;5448092;26;20254;-75
2024/04/13 10:44:23;;;;;;;2.80;1.77;;;25.30;99.90;;;;;;5439734;26;20247;-77
2024/04/13 10:46:52;;;;;;;6.82;2.33;;;25.30;99.90;;;;;;5435944;26;20287;-76
2024/04/13 10:49:21;;;;;;;2.90;1.90;;;25.20;99.90;;;;;;5438614;26;20260;-74
2024/04/13 10:51:50;;;;;;;3.80;1.90;;;25.40;99.90;;;;;;5451685;26;20255;-78
2024/04/13 10:54:16;;;;;;;3.13;1.73;;;25.60;99.90;;;;;;5454808;26;20263;-76
2024/04/13 10:56:46;;;;;;;3.35;1.90;;;26.00;99.90;;;;;;5448187;26;20259;-75
2024/04/13 10:59:12;;;;;;;2.60;1.83;;;26.20;99.90;;;;;;5447145;26;20270;-77
2024/04/13 11:01:44;;;;;;;3.53;2.03;;;26.40;99.90;;;;;;5450839;26;20251;-76
2024/04/13 11:04:13;;;;;;;2.72;1.40;;;26.50;99.90;;;;;;5451905;26;20325;-77
2024/04/13 11:06:44;;;;;;;2.78;1.50;;;26.50;99.90;;;;;;5445939;26;20251;-76
2024/04/13 11:09:10;;;;;;;7.30;2.42;;;26.20;99.90;;;;;;5452799;26;20259;-76
2024/04/13 11:11:39;;;;;;;2.90;1.75;;;25.90;99.90;;;;;;5453443;26;20259;-76
2024/04/13 11:14:05;;;;;;;3.47;2.00;;;25.80;99.90;;;;;;5452847;26;20278;-77
2024/04/13 11:16:34;;;;;;;3.63;1.75;;;25.90;99.90;;;;;;5447934;26;20266;-76
2024/04/13 11:19:00;;;;;;;4.07;1.90;;;26.10;99.90;;;;;;5451183;26;20602;-77
2024/04/13 11:21:29;;;;;;;3.65;1.98;;;26.10;99.90;;;;;;5449864;26;20293;-76
2024/04/13 11:23:58;;;;;;;3.53;2.00;;;26.00;99.90;;;;;;5437683;26;20259;-76
2024/04/13 11:26:30;;;;;;;2.20;1.50;;;26.30;99.90;;;;;;5449025;26;20251;-76
2024/04/13 11:28:57;;;;;;;3.72;2.20;;;26.30;99.90;;;;;;5457976;26;20603;-76
2024/04/13 11:31:25;;;;;;;4.57;1.85;;;26.40;99.90;;;;;;5446614;26;20286;-76
2024/04/13 11:33:51;;;;;;;3.20;1.80;;;26.50;99.90;;;;;;5450806;26;20287;-76
2024/04/13 11:36:21;;;;;;;2.78;1.60;;;26.50;99.90;;;;;;5451979;26;20247;-77
2024/04/13 11:38:47;;;;;;;2.15;1.60;;;26.70;99.90;;;;;;5451693;26;20251;-75
2024/04/13 11:41:19;;;;;;;4.32;1.60;;;26.70;99.90;;;;;;5449295;26;20281;-77
2024/04/13 11:43:52;;;;;;;4.40;2.08;;;26.80;99.90;;;;;;5447605;26;20251;-77
2024/04/13 11:46:21;;;;;;;4.95;1.92;;;26.70;99.90;;;;;;5449929;26;20285;-76
2024/04/13 11:48:48;;;;;;;1.70;1.42;;;26.60;99.90;;;;;;5450550;26;20294;-76
2024/04/13 11:51:16;;;;;;;3.85;1.40;;;26.60;99.90;;;;;;5454972;26;20341;-75
2024/04/13 11:53:43;;;;;;;5.95;1.73;;;26.60;99.90;;;;;;5454569;26;20310;-76
2024/04/13 11:56:13;;;;;;;2.33;1.73;;;26.70;99.90;;;;;;5449067;26;20255;-76
2024/04/13 11:58:48;;;;;;;2.28;1.52;;;26.90;99.90;;;;;;5457215;26;20259;-77
2024/04/13 12:01:17;;;;;;;2.95;1.70;;;27.20;99.90;;;;;;5447845;26;20274;-76
2024/04/13 12:03:43;;;;;;;3.58;1.90;;;27.20;99.90;;;;;;5450602;26;20251;-77
2024/04/13 12:06:11;;;;;;;3.38;1.40;;;27.10;99.90;;;;;;5447638;26;20247;-76
2024/04/13 12:08:38;;;;;;;3.35;1.52;;;27.10;99.90;;;;;;5449670;26;20235;-76
2024/04/13 12:11:06;;;;;;;3.55;1.80;;;27.10;99.90;;;;;;5447501;26;20686;-76
2024/04/13 12:13:34;;;;;;;4.45;1.70;;;27.10;99.90;;;;;;5447241;26;20291;-75
2024/04/13 13:06:53;;;;;;;2.28;1.38;;;28.00;99.90;;;;;;5394412;21;20365;-71
2024/04/13 13:09:22;;;;;;;4.13;1.42;;;28.10;99.90;;;;;;5420240;26;20255;-71
2024/04/13 13:11:50;;;;;;;2.22;1.33;;;28.10;99.90;;;;;;5424708;26;20255;-72
2024/04/13 13:14:17;;;;;;;2.17;1.25;;;28.20;99.90;;;;;;5415577;26;20274;-72
2024/04/13 13:16:46;;;;;;;1.67;1.30;;;28.10;99.90;;;;;;5425330;26;20617;-71
2024/04/13 13:19:12;;;;;;;2.60;1.70;;;28.10;99.90;;;;;;5414164;26;20251;-72
2024/04/13 13:21:41;;;;;;;2.85;1.67;;;28.20;99.90;;;;;;5418699;26;20665;-71
2024/04/13 13:24:07;;;;;;;2.08;1.40;;;28.30;99.90;;;;;;5418747;26;20576;-71
2024/04/13 13:26:38;;;;;;;1.77;1.30;;;28.30;99.90;;;;;;5412911;26;20251;-71
2024/04/13 13:29:04;;;;;;;4.00;1.50;;;28.30;99.90;;;;;;5416898;26;20290;-72
2024/04/13 13:31:32;;;;;;;2.13;1.52;;;28.30;99.90;;;;;;5421775;26;20251;-71
2024/04/13 13:33:58;;;;;;;2.05;1.52;;;28.30;99.90;;;;;;5417835;26;20251;-72
2024/04/13 13:36:27;;;;;;;3.78;1.48;;;28.20;99.90;;;;;;5418342;26;20289;-72
2024/04/13 13:38:53;;;;;;;1.80;1.10;;;28.10;99.90;;;;;;5419865;26;20298;-72
2024/04/13 13:41:21;;;;;;;2.85;1.55;;;28.00;99.90;;;;;;5423199;26;20228;-72
2024/04/13 13:43:50;;;;;;;3.65;1.52;;;28.10;99.90;;;;;;5429698;26;20294;-72
2024/04/13 13:46:19;;;;;;;1.65;1.55;;;28.00;99.90;;;;;;5432236;26;20254;-71
2024/04/13 13:48:45;;;;;;;2.83;1.17;;;28.10;99.90;;;;;;5427724;26;20255;-72
2024/04/13 13:51:14;;;;;;;1.48;1.10;;;28.10;99.90;;;;;;5404135;26;20318;-72
2024/04/13 13:53:39;;;;;;;2.80;1.70;;;28.10;99.90;;;;;;5433055;26;20276;-72
2024/04/13 13:56:09;;;;;;;1.27;1.15;;;28.20;99.90;;;;;;5435445;26;20745;-72
2024/04/13 13:58:35;;;;;;;3.35;1.70;;;28.10;99.90;;;;;;5433905;26;20259;-72
2024/04/13 14:01:09;;;;;;;2.15;1.30;;;28.20;99.90;;;;;;5426786;26;20747;-72
2024/04/13 14:03:35;;;;;;;2.88;1.55;;;28.20;99.30;;;;;;5435034;26;20250;-71
2024/04/13 14:06:04;;;;;;;2.53;1.23;;;28.30;99.70;;;;;;5430799;26;20298;-71
2024/04/13 14:08:30;;;;;;;2.10;1.42;;;28.30;99.90;;;;;;5402398;26;20358;-71
2024/04/13 14:10:58;;;;;;;2.85;1.40;;;28.30;99.70;;;;;;5423333;26;20297;-71
2024/04/13 14:13:25;;;;;;;1.85;1.30;;;28.50;99.90;;;;;;5423320;26;21097;-71
2024/04/13 14:15:54;;;;;;;2.95;1.58;;;28.60;99.90;;;;;;5418822;26;20748;-71
2024/04/13 14:18:23;;;;;;;2.80;1.60;;;28.50;99.80;;;;;;5428557;26;20247;-71
2024/04/13 14:20:51;;;;;;;1.20;1.10;;;28.50;99.90;;;;;;5367926;26;20358;-71
2024/04/13 14:23:19;;;;;;;3.35;1.58;;;28.70;99.90;;;;;;5399202;26;20256;-71
2024/04/13 14:25:48;;;;;;;1.55;1.20;;;28.80;99.90;;;;;;5403115;26;20263;-71
2024/04/13 14:28:14;;;;;;;1.42;1.10;;;28.80;99.90;;;;;;5405013;26;20335;-71
2024/04/13 14:30:42;;;;;;;2.03;1.60;;;29.00;99.90;;;;;;5422035;26;20266;-71
2024/04/13 14:33:08;;;;;;;2.63;1.27;;;29.10;99.90;;;;;;5426660;26;20247;-72
2024/04/13 14:35:41;;;;;;;3.45;1.58;;;29.20;99.90;;;;;;5422937;26;20243;-71
2024/04/13 14:38:07;;;;;;;2.28;1.42;;;29.10;99.90;;;;;;5415991;26;20775;-71
2024/04/13 14:40:36;;;;;;;2.00;1.33;;;28.90;99.90;;;;;;5413508;26;20821;-71
2024/04/13 14:43:02;;;;;;;4.45;1.88;;;28.70;99.90;;;;;;5425402;26;20264;-74
2024/04/13 14:45:31;;;;;;;3.55;1.60;;;28.60;99.90;;;;;;5391924;26;20305;-74
2024/04/13 14:47:57;;;;;;;2.70;1.45;;;28.60;99.90;;;;;;5424877;26;20358;-74
2024/04/13 14:50:26;;;;;;;2.40;1.58;;;28.60;99.90;;;;;;5422789;26;20665;-74
2024/04/13 14:52:54;;;;;;;3.65;1.75;;;28.70;99.90;;;;;;5425942;26;20577;-74
2024/04/13 14:55:23;;;;;;;3.28;1.63;;;28.80;99.90;;;;;;5402381;26;20752;-73
2024/04/13 14:57:51;;;;;;;2.45;1.73;;;28.80;99.90;;;;;;5411286;26;20252;-73
2024/04/13 15:00:20;;;;;;;1.48;1.30;;;28.90;99.90;;;;;;5377339;26;20223;-73
2024/04/13 15:02:46;;;;;;;2.63;1.42;;;29.00;99.90;;;;;;5396774;26;20251;-73
2024/04/13 15:05:15;;;;;;;2.65;1.40;;;29.00;99.90;;;;;;5422115;26;20301;-73
2024/04/13 15:07:41;;;;;;;2.28;1.52;;;28.90;99.90;;;;;;5397458;26;20283;-73
2024/04/13 15:10:14;;;;;;;1.80;1.30;;;28.90;99.90;;;;;;5411298;26;20247;-73
2024/04/13 15:12:40;;;;;;;2.75;1.45;;;28.80;99.90;;;;;;5423892;26;20276;-73
2024/04/13 15:15:09;;;;;;;2.38;1.65;;;28.80;99.90;;;;;;5430269;26;20370;-73
2024/04/13 15:17:35;;;;;;;1.30;1.20;;;28.80;99.90;;;;;;5406550;26;21771;-73
2024/04/13 15:20:04;;;;;;;2.47;1.58;;;28.70;99.90;;;;;;5416498;26;20261;-73
2024/04/13 15:22:30;;;;;;;1.83;1.65;;;28.80;99.90;;;;;;5420503;26;20745;-73
2024/04/13 15:24:59;;;;;;;2.05;1.75;;;28.80;99.90;;;;;;5419853;26;20357;-73
2024/04/13 15:27:28;;;;;;;3.17;1.30;;;28.80;99.90;;;;;;5415078;26;20251;-73
2024/04/13 15:29:57;;;;;;;3.90;1.40;;;28.90;99.90;;;;;;5422250;26;20318;-73
2024/04/13 15:32:23;;;;;;;2.15;1.40;;;28.90;99.90;;;;;;5418620;26;20256;-73